台中市, 台灣

2016年8月24日 04時59分 (GMT +0800)
ITAIWAND2 | | Change Station

海拔 200 ft 24.11 °N, 120.68 °E | Updated 4 minutes ago

Mostly Cloudy
多雲
84.7 °F
感覺像 93 °F
1.0
風 變化 風 來自
Gusts 3.0 英里每小時

今日
高 -- | 低 -- °F
--% 降水機率
昨天
高 -- | 低 -- °F
Precip. -- 英寸
氣壓 29.62 英寸
能見度 -9999.0 英里
多雲 少數 1200 ft
多雲時晴 2000 ft
多雲 5000 ft
高溫指數 93 °F
露點 75 °F
濕度 72%
降雨量 0.00 英寸
積雪深度 不適用。
5:35 AM 6:23 PM
虧凸月, 65% visible
METAR RCMQ 232030Z 15004KT 3200 BR FEW012 SCT020 BKN050 27/25 Q1003 RMK A2964 AWOS R36 WIND N/A
氣壓 29.62 英寸
能見度 -9999.0 英里
多雲 少數 1200 ft
多雲時晴 2000 ft
多雲 5000 ft
高溫指數 93 °F
露點 75 °F
濕度 72%
降雨量 0.00 英寸
積雪深度 不適用。
5:35 AM 6:23 PM
虧凸月, 65% visible
METAR RCMQ 232030Z 15004KT 3200 BR FEW012 SCT020 BKN050 27/25 Q1003 RMK A2964 AWOS R36 WIND N/A

10-Day Weather Forecast

No radar image for this location.
×

Almanac

天文

Aug. 24, 2016 昇起 降落
實際時間
民用曙暮光
航海曙暮光
天文學微明
月亮
可見光的長度
白晝時間
Tomorrow will be .
, % of the Moon is Illuminated

今天之最

國家高溫 國家低溫

Community

WunderPhotos

Upload Photos

1,934,453 照片已上傳!

WunderBlog® & News

Nearby

空氣質素

  空氣質素 空氣質素指數 污染物
Not available.

積雪量

Station 深度 海拔

地震活動

城市 距離 時間和日期
顯示的最小幅度是2.5。

沿海水溫

地點 溫度

Stations

附近的氣象站

氣象站位置 溫度 風寒指數 露點 濕度 Precip. 海拔 最近更新時間 類型